Main page
Satellite images 15-day forecastsClimateMarine weather Cyclones Lightning AirportsFAQ Newsletter About
Weather : Europe Africa North America South America Asia Australia-Oceania Others
Languages Contact

Bucharest, Romania

Henri Coandă

latitude: 44-33N, longitude: 026-06E, elevation: 95 m


METAR: LROP 241300Z 06019KT 9999 BKN015 OVC020 07/05 Q1018 NOSIG
TAF: LROP 241100Z 2412/2512 07020KT 9999 BKN020 TEMPO 2412/2418 07025G35KT TEMPO 2506/2512 07025G35KT

Time: 16:27 (13:27 UTC)

Current weather observation

The report was made 27 minutes ago, at 13:00 UTC
Wind 19 kt from the East/Northeast
Temperature 7°C
Humidity 87%
Pressure 1018 hPa
Visibility 10 km or more
Broken clouds at a height of 1500 ft
Overcast at a height of 2000 ft

Change units

Forecast

The report was made 2 hours and 27 minutes ago, at 11:00 UTC
Forecast valid from 24 at 12 UTC to 25 at 12 UTC
Wind 20 kt from the East/Northeast
Visibility 10 km or more
Broken clouds at a height of 2000 ft
Temporary
from 24 at 12 UTC to 24 at 18 UTC
Wind 25 kt from the East/Northeast with gusts up to 35 kt
Temporary
from 25 at 06 UTC to 25 at 12 UTC
Wind 25 kt from the East/Northeast with gusts up to 35 kt
The information on this site is subject to a disclaimer
Weather : Europe Africa North America South America Asia Australia-Oceania Others
Satellite images 15-day forecastsClimateMarine weather Cyclones Lightning AirportsFAQ Languages Contact Newsletter About